createdAt,value
2023-05-05T00:02:12.673Z,19.79
2023-05-05T00:04:39.302Z,19.80
2023-05-05T00:07:05.912Z,19.78
2023-05-05T00:09:32.518Z,19.80
2023-05-05T00:11:59.138Z,19.86
2023-05-05T00:14:25.747Z,19.86
2023-05-05T00:16:52.442Z,19.83
2023-05-05T00:19:19.092Z,19.81
2023-05-05T00:21:45.679Z,19.80
2023-05-05T00:24:12.284Z,19.75
2023-05-05T00:26:38.952Z,19.82
2023-05-05T00:29:05.610Z,19.68
2023-05-05T00:31:32.382Z,19.56
2023-05-05T00:33:59.084Z,19.52
2023-05-05T00:36:25.745Z,19.53
2023-05-05T00:38:52.348Z,19.52
2023-05-05T00:41:18.995Z,19.47
2023-05-05T00:43:45.693Z,19.45
2023-05-05T00:46:19.380Z,19.42
2023-05-05T00:48:46.031Z,19.45
2023-05-05T00:51:13.621Z,19.40
2023-05-05T00:53:40.264Z,19.37
2023-05-05T00:56:06.854Z,19.34
2023-05-05T00:58:33.450Z,19.26
2023-05-05T01:01:00.143Z,19.21
2023-05-05T01:03:26.955Z,19.13
2023-05-05T01:06:22.599Z,19.08
2023-05-05T01:09:10.425Z,19.05
2023-05-05T01:12:00.062Z,19.02
2023-05-05T01:14:53.431Z,18.95
2023-05-05T01:17:21.855Z,18.90
2023-05-05T01:19:54.513Z,18.89
2023-05-05T01:22:23.935Z,18.83
2023-05-05T01:25:22.817Z,18.80
2023-05-05T01:28:19.300Z,18.75
2023-05-05T01:31:00.895Z,18.71
2023-05-05T01:33:28.805Z,18.68
2023-05-05T01:35:56.175Z,18.72
2023-05-05T01:38:24.994Z,18.67
2023-05-05T01:41:03.579Z,18.70
2023-05-05T01:43:30.930Z,18.69
2023-05-05T01:45:57.735Z,18.68
2023-05-05T01:48:24.465Z,18.68
2023-05-05T01:50:51.121Z,18.66
2023-05-05T01:53:17.804Z,18.68
2023-05-05T01:55:44.529Z,18.65
2023-05-05T01:58:11.165Z,18.63
2023-05-05T02:00:37.828Z,18.67
2023-05-05T02:03:04.628Z,18.65
2023-05-05T02:05:31.516Z,18.62
2023-05-05T02:07:58.571Z,18.59
2023-05-05T02:10:25.461Z,18.54
2023-05-05T02:12:52.299Z,18.54
2023-05-05T02:15:18.969Z,18.53
2023-05-05T02:17:45.620Z,18.49
2023-05-05T02:20:12.846Z,18.42
2023-05-05T02:22:39.908Z,18.39
2023-05-05T02:25:06.934Z,18.37
2023-05-05T02:27:35.072Z,18.36
2023-05-05T02:30:07.167Z,18.33
2023-05-05T02:32:35.244Z,18.34
2023-05-05T02:35:06.553Z,18.28
2023-05-05T02:37:33.208Z,18.25
2023-05-05T02:40:05.176Z,18.17
2023-05-05T02:42:39.937Z,18.16
2023-05-05T02:45:16.354Z,18.11
2023-05-05T02:47:43.049Z,18.08
2023-05-05T02:50:10.823Z,18.03
2023-05-05T02:52:37.655Z,17.98
2023-05-05T02:55:04.529Z,17.97
2023-05-05T02:57:36.280Z,17.96
2023-05-05T03:00:29.539Z,17.92
2023-05-05T03:02:59.075Z,17.87
2023-05-05T03:05:31.751Z,17.81
2023-05-05T03:08:09.951Z,17.79
2023-05-05T03:11:03.293Z,17.73
2023-05-05T03:13:29.906Z,17.70
2023-05-05T03:15:56.556Z,17.68
2023-05-05T03:18:23.193Z,17.68
2023-05-05T03:20:49.844Z,17.65
2023-05-05T03:23:16.456Z,17.63
2023-05-05T03:25:47.065Z,17.61
2023-05-05T03:28:14.332Z,17.56
2023-05-05T03:30:41.554Z,17.56
2023-05-05T03:33:11.356Z,17.58
2023-05-05T03:35:38.044Z,17.56
2023-05-05T03:38:04.758Z,17.62
2023-05-05T03:40:42.986Z,17.63
2023-05-05T03:43:10.017Z,17.55
2023-05-05T03:45:36.674Z,17.47
2023-05-05T03:48:03.446Z,17.47
2023-05-05T03:50:30.146Z,17.43
2023-05-05T03:52:56.823Z,17.45
2023-05-05T03:55:23.493Z,17.45
2023-05-05T03:57:50.105Z,17.42
2023-05-05T04:00:18.266Z,17.36
2023-05-05T04:02:45.197Z,17.36
2023-05-05T04:05:11.894Z,17.31
2023-05-05T04:07:38.988Z,17.30
2023-05-05T04:10:06.824Z,17.28
2023-05-05T04:12:34.646Z,17.28
2023-05-05T04:15:01.380Z,17.29
2023-05-05T04:17:28.091Z,17.30
2023-05-05T04:19:54.885Z,17.29
2023-05-05T04:22:21.713Z,17.27
2023-05-05T04:24:48.407Z,17.25
2023-05-05T04:27:15.021Z,17.30
2023-05-05T04:29:41.677Z,17.32
2023-05-05T04:32:08.318Z,17.32
2023-05-05T04:34:35.387Z,17.37
2023-05-05T04:37:02.212Z,17.40
2023-05-05T04:39:28.952Z,17.46
2023-05-05T04:41:55.537Z,17.52
2023-05-05T04:44:22.174Z,17.61
2023-05-05T04:46:48.865Z,17.65
2023-05-05T04:49:15.531Z,17.73
2023-05-05T04:51:42.442Z,17.80
2023-05-05T04:54:10.400Z,17.85
2023-05-05T04:56:37.819Z,17.92
2023-05-05T04:59:04.473Z,18.01
2023-05-05T05:01:31.120Z,18.11
2023-05-05T05:03:59.021Z,18.22
2023-05-05T05:06:25.754Z,18.26
2023-05-05T05:08:52.408Z,18.29
2023-05-05T05:11:19.093Z,18.38
2023-05-05T05:13:45.767Z,18.43
2023-05-05T05:16:12.456Z,18.47
2023-05-05T05:18:39.058Z,18.50
2023-05-05T05:21:05.740Z,18.52
2023-05-05T05:23:32.340Z,18.60
2023-05-05T05:25:59.034Z,18.70
2023-05-05T05:28:25.743Z,18.78
2023-05-05T05:30:53.412Z,18.89
2023-05-05T05:33:20.040Z,18.96
2023-05-05T05:35:47.950Z,19.02
2023-05-05T05:38:15.359Z,19.03
2023-05-05T05:40:42.248Z,19.01
2023-05-05T05:43:08.935Z,19.03
2023-05-05T05:45:36.013Z,19.03
2023-05-05T05:48:02.767Z,19.07
2023-05-05T05:50:29.767Z,19.12
2023-05-05T05:52:56.424Z,19.17
2023-05-05T05:55:24.495Z,19.21
2023-05-05T05:57:52.280Z,19.20
2023-05-05T06:00:18.977Z,19.26
2023-05-05T06:02:45.732Z,19.32
2023-05-05T06:05:12.747Z,19.39
2023-05-05T06:07:40.346Z,19.44
2023-05-05T06:10:22.798Z,19.40
2023-05-05T06:12:52.941Z,19.49
2023-05-05T06:15:19.661Z,19.68
2023-05-05T06:17:46.401Z,19.73
2023-05-05T06:20:13.319Z,19.66
2023-05-05T06:22:40.073Z,19.76
2023-05-05T06:25:07.095Z,19.85
2023-05-05T06:27:33.688Z,20.11
2023-05-05T06:30:00.312Z,20.20
2023-05-05T06:32:26.937Z,20.46
2023-05-05T06:34:53.543Z,20.69
2023-05-05T06:37:20.143Z,20.81
2023-05-05T06:39:46.862Z,20.97
2023-05-05T06:42:16.312Z,21.23
2023-05-05T06:44:42.980Z,21.44
2023-05-05T06:47:09.645Z,21.57
2023-05-05T06:49:36.285Z,21.63
2023-05-05T06:52:02.902Z,21.65
2023-05-05T06:54:29.524Z,21.49
2023-05-05T06:56:58.100Z,21.40
2023-05-05T06:59:26.423Z,21.43
2023-05-05T07:01:53.041Z,21.61
2023-05-05T07:04:19.708Z,21.66
2023-05-05T07:06:46.399Z,21.79
2023-05-05T07:09:14.770Z,21.90
2023-05-05T07:11:42.361Z,21.68
2023-05-05T07:14:09.064Z,21.76
2023-05-05T07:16:36.149Z,21.70
2023-05-05T07:19:03.002Z,21.75
2023-05-05T07:21:29.645Z,21.74
2023-05-05T07:23:56.253Z,21.83
2023-05-05T07:26:22.890Z,21.95
2023-05-05T07:28:49.500Z,22.03
2023-05-05T07:31:16.155Z,22.06
2023-05-05T07:33:42.821Z,22.14
2023-05-05T07:36:09.525Z,22.13
2023-05-05T07:38:36.125Z,22.22
2023-05-05T07:41:02.921Z,22.25
2023-05-05T07:43:29.554Z,22.26
2023-05-05T07:45:56.260Z,22.23
2023-05-05T07:48:22.888Z,22.30
2023-05-05T07:50:49.597Z,22.37
2023-05-05T07:53:16.222Z,22.42
2023-05-05T07:55:42.848Z,22.52
2023-05-05T07:58:09.626Z,22.49
2023-05-05T08:00:36.275Z,22.51
2023-05-05T08:03:04.347Z,22.43
2023-05-05T08:05:31.090Z,22.47
2023-05-05T08:07:57.725Z,22.46
2023-05-05T08:10:24.401Z,22.48
2023-05-05T08:12:51.138Z,22.43
2023-05-05T08:15:17.840Z,22.43
2023-05-05T08:17:48.674Z,22.38
2023-05-05T08:20:16.187Z,22.45
2023-05-05T08:22:42.841Z,22.38
2023-05-05T08:25:09.801Z,22.38
2023-05-05T08:27:37.627Z,22.32
2023-05-05T08:30:04.781Z,22.32
2023-05-05T08:32:31.667Z,22.41
2023-05-05T08:34:58.303Z,22.44
2023-05-05T08:37:24.948Z,22.54
2023-05-05T08:39:51.629Z,22.49
2023-05-05T08:42:32.868Z,22.52
2023-05-05T08:45:03.530Z,22.75
2023-05-05T08:47:30.197Z,22.79
2023-05-05T08:49:56.860Z,22.98
2023-05-05T08:52:23.819Z,23.12
2023-05-05T08:54:51.329Z,23.05
2023-05-05T08:57:21.448Z,23.14
2023-05-05T08:59:48.289Z,23.19
2023-05-05T09:02:15.077Z,23.22
2023-05-05T09:04:41.757Z,23.35
2023-05-05T09:07:08.895Z,23.37
2023-05-05T09:09:35.539Z,23.51
2023-05-05T09:12:02.147Z,23.51
2023-05-05T09:14:28.835Z,23.43
2023-05-05T09:16:55.466Z,23.61
2023-05-05T09:19:22.179Z,23.68
2023-05-05T09:21:48.791Z,23.77
2023-05-05T09:24:15.488Z,23.90
2023-05-05T09:26:43.613Z,23.90
2023-05-05T09:29:10.270Z,23.88
2023-05-05T09:31:37.037Z,23.85
2023-05-05T09:34:16.106Z,23.95
2023-05-05T09:36:43.325Z,24.10
2023-05-05T09:39:10.104Z,24.02
2023-05-05T09:41:40.920Z,24.06
2023-05-05T09:44:07.759Z,24.07
2023-05-05T09:46:34.593Z,24.18
2023-05-05T09:49:19.567Z,24.29
2023-05-05T09:51:46.651Z,24.40
2023-05-05T09:54:28.117Z,24.33
2023-05-05T09:56:57.776Z,24.40
2023-05-05T09:59:24.581Z,24.40
2023-05-05T10:01:51.518Z,24.33
2023-05-05T10:04:27.941Z,24.43
2023-05-05T10:06:58.125Z,24.50
2023-05-05T10:09:25.356Z,24.51
2023-05-05T10:11:51.980Z,24.72
2023-05-05T10:14:18.684Z,24.96
2023-05-05T10:16:49.564Z,25.12
2023-05-05T10:19:18.521Z,25.08
2023-05-05T10:21:52.628Z,25.06
2023-05-05T10:24:42.760Z,25.04
2023-05-05T10:27:18.467Z,25.02
2023-05-05T10:29:50.523Z,25.05
2023-05-05T10:32:51.218Z,25.06
2023-05-05T10:35:14.006Z,24.83
2023-05-05T10:37:40.697Z,24.77
2023-05-05T10:40:08.857Z,24.60
2023-05-05T10:42:37.625Z,24.64
2023-05-05T10:45:05.117Z,24.66
2023-05-05T10:47:31.857Z,24.65
2023-05-05T10:50:29.684Z,24.64
2023-05-05T10:53:41.620Z,24.70
2023-05-05T10:56:18.086Z,24.66
2023-05-05T10:58:59.108Z,24.56
2023-05-05T11:01:33.421Z,24.18
2023-05-05T11:04:19.444Z,23.84
2023-05-05T11:07:14.731Z,23.39
2023-05-05T11:09:57.678Z,23.71
2023-05-05T11:12:24.298Z,23.84
2023-05-05T11:15:27.978Z,24.04
2023-05-05T11:17:55.214Z,24.20
2023-05-05T11:20:36.848Z,24.45
2023-05-05T11:23:03.456Z,24.43
2023-05-05T11:25:36.453Z,24.54
2023-05-05T11:28:17.639Z,24.64
2023-05-05T11:30:59.815Z,24.79
2023-05-05T11:33:36.479Z,24.71
2023-05-05T11:36:13.318Z,24.77
2023-05-05T11:38:45.561Z,24.90
2023-05-05T11:41:30.354Z,25.02
2023-05-05T11:44:10.012Z,25.08
2023-05-05T11:46:37.022Z,25.12
2023-05-05T11:49:03.801Z,25.18
2023-05-05T11:51:30.428Z,25.21
2023-05-05T11:53:58.978Z,25.18
2023-05-05T11:56:25.958Z,25.28
2023-05-05T11:59:10.973Z,25.30
2023-05-05T12:01:40.935Z,25.33
2023-05-05T12:04:11.345Z,25.40
2023-05-05T12:06:38.189Z,25.50
2023-05-05T12:09:06.266Z,25.56
2023-05-05T12:11:32.875Z,25.63
2023-05-05T12:14:11.567Z,25.70
2023-05-05T12:16:38.209Z,25.70
2023-05-05T12:19:05.758Z,25.89
2023-05-05T12:21:32.637Z,26.19
2023-05-05T12:23:59.632Z,26.14
2023-05-05T12:26:33.619Z,26.28
2023-05-05T12:29:00.569Z,26.36
2023-05-05T12:31:34.227Z,26.12
2023-05-05T12:34:00.893Z,26.13
2023-05-05T12:36:28.759Z,26.10
2023-05-05T12:38:57.326Z,26.13
2023-05-05T12:41:23.937Z,25.93
2023-05-05T12:44:00.263Z,25.82
2023-05-05T12:46:27.284Z,25.95
2023-05-05T12:49:06.616Z,26.04
2023-05-05T12:51:36.478Z,26.14
2023-05-05T12:54:07.470Z,26.26
2023-05-05T12:56:41.578Z,26.32
2023-05-05T12:59:09.267Z,26.34
2023-05-05T13:01:36.758Z,26.27
2023-05-05T13:04:13.425Z,26.18
2023-05-05T13:06:40.850Z,26.11
2023-05-05T13:09:07.652Z,26.01
2023-05-05T13:11:38.122Z,25.71
2023-05-05T13:14:05.157Z,25.73
2023-05-05T13:16:32.538Z,25.64
2023-05-05T13:18:59.179Z,25.34
2023-05-05T13:21:25.835Z,25.22
2023-05-05T13:23:52.481Z,25.28
2023-05-05T13:26:19.156Z,25.47
2023-05-05T13:28:45.844Z,25.59
2023-05-05T13:31:12.501Z,25.64
2023-05-05T13:33:39.179Z,25.74
2023-05-05T13:36:06.025Z,25.82
2023-05-05T13:38:32.739Z,25.94
2023-05-05T13:40:59.392Z,26.03
2023-05-05T13:43:26.089Z,26.13
2023-05-05T13:45:52.699Z,26.18
2023-05-05T13:48:19.723Z,26.26
2023-05-05T13:50:46.420Z,26.31
2023-05-05T13:53:13.307Z,26.33
2023-05-05T13:55:40.084Z,26.42
2023-05-05T13:58:06.930Z,26.50
2023-05-05T14:00:33.676Z,26.51
2023-05-05T14:03:00.394Z,26.68
2023-05-05T14:05:27.065Z,26.89
2023-05-05T14:07:53.757Z,27.05
2023-05-05T14:10:20.391Z,27.11
2023-05-05T14:12:47.037Z,26.96
2023-05-05T14:15:13.743Z,26.92
2023-05-05T14:17:40.458Z,26.95
2023-05-05T14:20:07.549Z,27.24
2023-05-05T14:22:34.217Z,26.97
2023-05-05T14:25:00.883Z,27.06
2023-05-05T14:27:27.581Z,27.20
2023-05-05T14:29:54.318Z,27.16
2023-05-05T14:32:20.980Z,27.42
2023-05-05T14:34:50.224Z,27.65
2023-05-05T14:37:17.113Z,27.76
2023-05-05T14:39:43.774Z,27.78
2023-05-05T14:42:10.485Z,27.88
2023-05-05T14:44:37.156Z,27.94
2023-05-05T14:47:03.789Z,27.81
2023-05-05T14:49:30.459Z,27.87
2023-05-05T14:51:57.069Z,27.89
2023-05-05T14:54:28.263Z,27.89
2023-05-05T14:56:55.986Z,28.13
2023-05-05T14:59:22.649Z,28.47
2023-05-05T15:01:49.321Z,28.79
2023-05-05T15:04:15.982Z,29.13
2023-05-05T15:06:42.644Z,29.31
2023-05-05T15:09:09.289Z,29.54
2023-05-05T15:11:35.997Z,29.70
2023-05-05T15:14:02.651Z,29.99
2023-05-05T15:16:29.361Z,30.10
2023-05-05T15:18:56.015Z,30.22
2023-05-05T15:21:22.667Z,30.46
2023-05-05T15:23:49.353Z,30.60
2023-05-05T15:26:16.052Z,30.94
2023-05-05T15:28:42.718Z,31.18
2023-05-05T15:31:09.384Z,31.27
2023-05-05T15:33:36.005Z,30.90
2023-05-05T15:36:02.666Z,30.89
2023-05-05T15:38:29.641Z,30.95
2023-05-05T15:40:56.293Z,31.12
2023-05-05T15:43:22.949Z,30.80
2023-05-05T15:45:49.612Z,30.55
2023-05-05T15:48:16.255Z,30.42
2023-05-05T15:50:42.912Z,30.25
2023-05-05T15:53:09.601Z,29.88
2023-05-05T15:55:36.289Z,29.46
2023-05-05T15:58:02.943Z,29.18
2023-05-05T16:00:29.577Z,28.80
2023-05-05T16:02:56.241Z,28.46
2023-05-05T16:05:23.251Z,28.15
2023-05-05T16:07:50.158Z,27.94
2023-05-05T16:10:16.826Z,27.78
2023-05-05T16:12:43.603Z,27.70
2023-05-05T16:15:11.010Z,27.67
2023-05-05T16:17:38.036Z,27.81
2023-05-05T16:20:05.078Z,27.50
2023-05-05T16:22:31.728Z,27.37
2023-05-05T16:24:58.457Z,27.28
2023-05-05T16:27:25.103Z,28.24
2023-05-05T16:29:51.746Z,27.98
2023-05-05T16:32:18.431Z,27.85
2023-05-05T16:34:45.225Z,27.81
2023-05-05T16:37:11.883Z,27.54
2023-05-05T16:39:38.684Z,27.38
2023-05-05T16:42:05.538Z,27.06
2023-05-05T16:44:32.178Z,26.79
2023-05-05T16:46:58.834Z,26.31
2023-05-05T16:49:25.433Z,26.32
2023-05-05T16:51:52.062Z,26.12
2023-05-05T16:54:18.782Z,26.09
2023-05-05T16:56:46.512Z,26.10
2023-05-05T16:59:13.213Z,26.04
2023-05-05T17:01:39.925Z,25.98
2023-05-05T17:04:06.565Z,25.68
2023-05-05T17:06:33.273Z,25.60
2023-05-05T17:08:59.963Z,25.49
2023-05-05T17:11:26.621Z,25.35
2023-05-05T17:13:53.314Z,25.52
2023-05-05T17:16:19.972Z,25.40
2023-05-05T17:18:46.598Z,25.47
2023-05-05T17:21:13.212Z,25.48
2023-05-05T17:23:39.846Z,25.47
2023-05-05T17:26:06.446Z,25.40
2023-05-05T17:28:33.044Z,25.21
2023-05-05T17:30:59.705Z,25.23
2023-05-05T17:33:26.343Z,25.23
2023-05-05T17:35:52.971Z,25.19
2023-05-05T17:38:19.627Z,25.19
2023-05-05T17:40:46.257Z,25.14
2023-05-05T17:43:12.882Z,25.10
2023-05-05T17:45:40.532Z,25.01
2023-05-05T17:48:07.285Z,24.94
2023-05-05T17:50:33.995Z,24.96
2023-05-05T17:53:00.687Z,24.93
2023-05-05T17:55:27.408Z,24.94
2023-05-05T17:57:54.000Z,24.94
2023-05-05T18:00:21.113Z,24.85
2023-05-05T18:02:47.935Z,24.86
2023-05-05T18:05:14.633Z,24.79
2023-05-05T18:07:41.317Z,24.72
2023-05-05T18:10:08.508Z,24.60
2023-05-05T18:12:35.187Z,24.64
2023-05-05T18:15:02.919Z,24.57
2023-05-05T18:17:29.730Z,24.61
2023-05-05T18:19:57.803Z,24.49
2023-05-05T18:22:25.204Z,24.44
2023-05-05T18:24:51.825Z,24.40
2023-05-05T18:27:18.485Z,24.41
2023-05-05T18:29:45.135Z,24.28
2023-05-05T18:32:11.780Z,24.22
2023-05-05T18:34:38.480Z,24.19
2023-05-05T18:37:05.102Z,24.06
2023-05-05T18:39:31.740Z,24.00
2023-05-05T18:41:58.402Z,23.84
2023-05-05T18:44:25.053Z,23.73
2023-05-05T18:46:51.821Z,23.70
2023-05-05T18:49:18.517Z,23.64
2023-05-05T18:51:45.247Z,23.62
2023-05-05T18:54:11.875Z,23.55
2023-05-05T18:56:38.551Z,23.50
2023-05-05T18:59:05.219Z,23.47
2023-05-05T19:01:31.894Z,23.38
2023-05-05T19:03:58.544Z,23.34
2023-05-05T19:06:25.226Z,23.35
2023-05-05T19:08:51.851Z,23.32
2023-05-05T19:11:18.499Z,23.27
2023-05-05T19:13:45.274Z,23.15
2023-05-05T19:16:12.091Z,23.14
2023-05-05T19:18:38.915Z,23.13
2023-05-05T19:21:05.511Z,23.14
2023-05-05T19:23:32.266Z,23.05
2023-05-05T19:25:58.860Z,22.99
2023-05-05T19:28:25.452Z,22.96
2023-05-05T19:30:52.260Z,22.95
2023-05-05T19:33:18.910Z,22.91
2023-05-05T19:35:45.585Z,22.83
2023-05-05T19:38:12.274Z,22.73
2023-05-05T19:40:39.045Z,22.72
2023-05-05T19:43:05.667Z,22.68
2023-05-05T19:45:32.311Z,22.65
2023-05-05T19:47:59.648Z,22.61
2023-05-05T19:50:26.302Z,22.56
2023-05-05T19:52:54.571Z,22.51
2023-05-05T19:55:21.321Z,22.43
2023-05-05T19:57:48.103Z,22.42
2023-05-05T20:00:14.911Z,22.36
2023-05-05T20:02:41.678Z,22.32
2023-05-05T20:05:08.741Z,22.25
2023-05-05T20:07:35.365Z,22.17
2023-05-05T20:10:02.128Z,22.12
2023-05-05T20:12:28.810Z,22.06
2023-05-05T20:14:55.425Z,22.01
2023-05-05T20:17:22.151Z,21.98
2023-05-05T20:19:48.895Z,21.90
2023-05-05T20:22:15.605Z,21.88
2023-05-05T20:24:42.264Z,21.85
2023-05-05T20:27:08.991Z,21.79
2023-05-05T20:29:35.706Z,21.74
2023-05-05T20:32:02.414Z,21.66
2023-05-05T20:34:29.037Z,21.62
2023-05-05T20:36:56.386Z,21.59
2023-05-05T20:39:23.121Z,21.55
2023-05-05T20:41:49.848Z,21.53
2023-05-05T20:44:16.469Z,21.52
2023-05-05T20:46:43.365Z,21.48
2023-05-05T20:49:10.192Z,21.49
2023-05-05T20:51:36.940Z,21.47
2023-05-05T20:54:05.104Z,21.49
2023-05-05T20:56:31.927Z,21.52
2023-05-05T20:58:58.857Z,21.46
2023-05-05T21:01:25.612Z,21.43
2023-05-05T21:03:52.315Z,21.42
2023-05-05T21:06:19.021Z,21.42
2023-05-05T21:08:46.446Z,21.42
2023-05-05T21:11:13.105Z,21.46
2023-05-05T21:13:39.738Z,21.49
2023-05-05T21:16:06.389Z,21.52
2023-05-05T21:18:33.085Z,21.54
2023-05-05T21:21:00.156Z,21.59
2023-05-05T21:23:26.805Z,21.56
2023-05-05T21:25:53.453Z,21.51
2023-05-05T21:28:20.095Z,21.52
2023-05-05T21:30:54.912Z,21.51
2023-05-05T21:33:31.631Z,21.47
2023-05-05T21:35:58.274Z,21.50
2023-05-05T21:38:25.039Z,21.49
2023-05-05T21:40:58.014Z,21.53
2023-05-05T21:43:27.882Z,21.54
2023-05-05T21:46:06.972Z,21.52
2023-05-05T21:48:33.811Z,21.47
2023-05-05T21:51:00.533Z,21.49
2023-05-05T21:53:27.378Z,21.49
2023-05-05T21:55:54.041Z,21.52
2023-05-05T21:58:20.717Z,21.52
2023-05-05T22:00:50.418Z,21.52
2023-05-05T22:03:17.377Z,21.55
2023-05-05T22:05:44.133Z,21.51
2023-05-05T22:08:10.866Z,21.49
2023-05-05T22:10:37.519Z,21.51
2023-05-05T22:13:04.284Z,21.48
2023-05-05T22:15:38.879Z,21.45
2023-05-05T22:18:05.738Z,21.44
2023-05-05T22:20:32.371Z,21.42
2023-05-05T22:22:59.030Z,21.40
2023-05-05T22:25:25.658Z,21.41
2023-05-05T22:27:52.419Z,21.44
2023-05-05T22:30:19.091Z,21.53
2023-05-05T22:32:45.790Z,21.51
2023-05-05T22:35:12.533Z,21.47
2023-05-05T22:37:39.187Z,21.41
2023-05-05T22:40:06.405Z,21.38
2023-05-05T22:42:33.067Z,21.36
2023-05-05T22:44:59.760Z,21.41
2023-05-05T22:47:26.435Z,21.45
2023-05-05T22:49:53.174Z,21.48
2023-05-05T22:52:19.895Z,21.45
2023-05-05T22:54:46.534Z,21.32
2023-05-05T22:57:13.176Z,21.32
2023-05-05T22:59:40.145Z,21.25
2023-05-05T23:02:06.853Z,21.23
2023-05-05T23:04:33.547Z,21.22
2023-05-05T23:07:00.268Z,21.12
2023-05-05T23:09:27.010Z,21.05
2023-05-05T23:11:53.643Z,20.97
2023-05-05T23:14:20.341Z,20.94
2023-05-05T23:16:47.036Z,20.93
2023-05-05T23:19:13.745Z,20.90
2023-05-05T23:21:52.027Z,20.89
2023-05-05T23:24:19.790Z,20.82
2023-05-05T23:26:46.469Z,20.82
2023-05-05T23:29:13.164Z,20.78
2023-05-05T23:31:39.886Z,20.73
2023-05-05T23:34:06.552Z,20.78
2023-05-05T23:36:33.199Z,20.82
2023-05-05T23:38:59.880Z,20.77
2023-05-05T23:41:26.503Z,20.71
2023-05-05T23:43:53.113Z,20.63
2023-05-05T23:46:19.792Z,20.59
2023-05-05T23:48:46.417Z,20.54
2023-05-05T23:51:13.134Z,20.54
2023-05-05T23:53:39.780Z,20.54
2023-05-05T23:56:06.896Z,20.54
2023-05-05T23:58:33.541Z,20.51
